createdAt,value
2023-03-23T15:59:45.215Z,21.22
2023-03-23T16:02:49.782Z,21.25
2023-03-23T16:06:01.994Z,21.18
2023-03-23T16:09:05.108Z,21.12
2023-03-23T16:12:10.115Z,21.01
2023-03-23T16:15:12.768Z,20.95
2023-03-23T16:18:19.808Z,20.91
2023-03-23T16:21:26.167Z,20.95
2023-03-23T16:24:28.467Z,21.12
2023-03-23T16:27:30.425Z,21.28
2023-03-23T16:30:36.688Z,21.34
2023-03-23T16:33:38.794Z,21.52
2023-03-23T16:36:41.084Z,21.53
2023-03-23T16:39:43.439Z,21.56
2023-03-23T16:42:47.719Z,21.57
2023-03-23T16:45:55.178Z,21.45
2023-03-23T16:48:57.729Z,21.42
2023-03-23T16:52:00.152Z,21.36
2023-03-23T16:55:05.120Z,21.35
2023-03-23T16:58:18.256Z,21.43
2023-03-23T17:01:20.562Z,21.54
2023-03-23T17:04:22.432Z,21.37
2023-03-23T17:15:06.428Z,20.98
2023-03-23T17:18:08.714Z,20.91
2023-03-23T17:21:10.741Z,20.85
2023-03-23T17:24:13.005Z,20.79
2023-03-23T17:27:19.307Z,20.72
2023-03-23T17:30:21.391Z,20.96
2023-03-23T17:33:23.281Z,20.93
2023-03-23T17:36:25.306Z,20.77
2023-03-23T17:39:28.396Z,20.67
2023-03-23T17:42:30.961Z,20.57
2023-03-23T17:45:33.249Z,20.47
2023-03-23T17:48:36.180Z,20.35
2023-03-23T17:51:38.074Z,20.26
2023-03-23T17:54:39.983Z,20.20
2023-03-23T17:57:43.294Z,20.20
2023-03-23T18:00:46.288Z,20.32
2023-03-23T18:03:48.533Z,20.39
2023-03-23T18:06:50.733Z,20.46
2023-03-23T18:09:52.771Z,20.43
2023-03-23T18:12:54.658Z,20.36
2023-03-23T18:15:59.625Z,20.31
2023-03-23T18:19:01.553Z,20.28
2023-03-23T18:22:03.651Z,20.25
2023-03-23T18:25:06.654Z,20.17
2023-03-23T18:28:08.875Z,20.14
2023-03-23T18:31:12.132Z,20.06
2023-03-23T18:34:14.108Z,20.05
2023-03-23T18:37:16.478Z,20.03
2023-03-23T18:40:20.119Z,20.00
2023-03-23T18:43:22.438Z,19.92
2023-03-23T18:46:24.432Z,19.87
2023-03-23T18:49:28.596Z,19.83
2023-03-23T18:52:31.225Z,19.76
2023-03-23T18:55:33.221Z,19.75
2023-03-23T18:58:35.385Z,19.74
2023-03-23T19:01:37.470Z,19.74
2023-03-23T19:04:39.750Z,19.70
2023-03-23T19:07:43.705Z,19.68
2023-03-23T19:10:47.462Z,19.72
2023-03-23T19:14:00.391Z,19.87
2023-03-23T19:17:04.610Z,19.88
2023-03-23T19:20:14.648Z,19.91
2023-03-23T19:23:24.462Z,19.85
2023-03-23T19:26:29.196Z,19.78
2023-03-23T19:29:31.385Z,19.74
2023-03-23T19:32:34.784Z,19.64
2023-03-23T19:35:37.436Z,19.58
2023-03-23T19:38:39.900Z,19.54
2023-03-23T19:41:45.525Z,19.47
2023-03-23T19:44:48.508Z,19.42
2023-03-23T19:47:55.379Z,19.36
2023-03-23T19:50:58.809Z,19.34
2023-03-23T19:54:01.912Z,19.35
2023-03-23T19:57:04.133Z,19.45
2023-03-23T20:00:07.681Z,19.55
2023-03-23T20:03:10.818Z,19.61
2023-03-23T20:06:15.319Z,19.67
2023-03-23T20:09:18.274Z,19.73
2023-03-23T20:12:21.222Z,19.66
2023-03-23T20:15:24.597Z,19.69
2023-03-23T20:18:28.653Z,19.70
2023-03-23T20:21:31.510Z,19.72
2023-03-23T20:24:33.572Z,19.70
2023-03-23T20:27:35.636Z,19.64
2023-03-23T20:30:38.208Z,19.60
2023-03-23T20:33:40.356Z,19.54
2023-03-23T20:36:45.357Z,19.50
2023-03-23T20:39:48.923Z,19.46
2023-03-23T20:42:52.878Z,19.43
2023-03-23T20:45:55.964Z,19.41
2023-03-23T20:48:58.358Z,19.42
2023-03-23T20:52:00.738Z,19.38
2023-03-23T20:55:03.255Z,19.35
2023-03-23T20:58:05.530Z,19.31
2023-03-23T21:01:09.144Z,19.31
2023-03-23T21:04:15.449Z,19.27
2023-03-23T21:07:18.283Z,19.25
2023-03-23T21:10:22.947Z,19.21
2023-03-23T21:13:24.899Z,19.18
2023-03-23T21:16:27.420Z,19.13
2023-03-23T21:19:29.903Z,19.10
2023-03-23T21:22:31.781Z,19.05
2023-03-23T21:25:35.217Z,19.02
2023-03-23T21:28:38.053Z,18.97
2023-03-23T21:31:39.975Z,18.90
2023-03-23T21:34:43.544Z,18.89
2023-03-23T21:37:46.076Z,18.85
2023-03-23T21:40:48.270Z,18.81
2023-03-23T21:43:50.669Z,18.82
2023-03-23T21:46:54.617Z,18.77
2023-03-23T21:49:57.258Z,18.74
2023-03-23T21:53:01.059Z,18.70
2023-03-23T21:56:03.938Z,18.70
2023-03-23T21:59:07.819Z,18.66
2023-03-23T22:02:12.194Z,18.60
2023-03-23T22:05:14.576Z,18.58
2023-03-23T22:08:16.774Z,18.55
2023-03-23T22:11:20.403Z,18.58
2023-03-23T22:14:22.755Z,18.72
2023-03-23T22:17:24.942Z,18.57
2023-03-23T22:20:27.081Z,18.47
2023-03-23T22:23:29.116Z,18.42
2023-03-23T22:26:31.516Z,18.39
2023-03-23T22:29:33.480Z,18.34
2023-03-23T22:32:35.599Z,18.31
2023-03-23T22:35:37.676Z,18.31
2023-03-23T22:38:41.333Z,18.32
2023-03-23T22:41:43.707Z,18.31
2023-03-23T22:44:46.635Z,18.27
2023-03-23T22:47:48.618Z,18.25
2023-03-23T22:50:50.595Z,18.18
2023-03-23T22:53:53.672Z,18.18
2023-03-23T22:56:55.992Z,18.13
2023-03-23T22:59:57.927Z,18.13
2023-03-23T23:02:59.946Z,18.10
2023-03-23T23:06:02.377Z,18.05
2023-03-23T23:09:04.584Z,18.02
2023-03-23T23:12:06.899Z,17.92
2023-03-23T23:15:12.736Z,17.88
2023-03-23T23:18:15.087Z,17.85
2023-03-23T23:21:18.692Z,17.84
2023-03-23T23:24:20.845Z,17.88
2023-03-23T23:27:23.320Z,17.88
2023-03-23T23:30:28.124Z,17.89
2023-03-23T23:33:30.083Z,17.89
2023-03-23T23:36:32.533Z,17.89
2023-03-23T23:39:38.309Z,17.92
2023-03-23T23:42:40.671Z,17.80
2023-03-23T23:45:44.078Z,17.80
2023-03-23T23:48:46.670Z,17.74
2023-03-23T23:51:48.818Z,17.64
2023-03-23T23:54:52.752Z,17.59
2023-03-23T23:57:55.120Z,17.54
